Time;durP1;ratioP1;P1;durP2;ratioP2;P2;SDS_P1;SDS_P2;PMS_P1;PMS_P2;Temp;Humidity;BMP_temperature;BMP_pressure;BME280_temperature;BME280_humidity;BME280_pressure;Samples;Min_cycle;Max_cycle;Signal;HPM_P1;HPM_P2
2023/10/19 00:01:11;;;;;;;20.02;14.90;;;8.00;99.90;;;;;;5077672;28;20035;-74
2023/10/19 00:03:37;;;;;;;21.75;14.43;;;8.00;99.90;;;;;;5112787;28;20139;-73
2023/10/19 00:06:05;;;;;;;17.17;13.25;;;7.90;99.90;;;;;;5112612;28;20054;-74
2023/10/19 00:09:04;;;;;;;19.17;13.73;;;7.90;99.90;;;;;;5112259;28;20075;-74
2023/10/19 00:11:24;;;;;;;21.35;15.98;;;7.90;99.90;;;;;;5088948;28;20052;-74
2023/10/19 00:13:50;;;;;;;25.35;16.30;;;7.90;99.90;;;;;;5094348;28;20044;-74
2023/10/19 00:16:16;;;;;;;21.92;13.50;;;7.90;99.90;;;;;;5096321;28;20059;-75
2023/10/19 00:18:49;;;;;;;23.98;16.55;;;7.90;99.90;;;;;;5115569;28;20062;-75
2023/10/19 00:21:24;;;;;;;23.95;17.20;;;7.80;99.90;;;;;;5097446;28;20054;-76
2023/10/19 00:23:57;;;;;;;24.67;17.05;;;7.80;99.90;;;;;;5065288;28;20039;-75
2023/10/19 00:26:25;;;;;;;22.25;13.23;;;7.80;99.90;;;;;;5115144;28;20047;-75
2023/10/19 00:28:57;;;;;;;22.60;16.55;;;7.70;99.90;;;;;;5097266;28;20126;-75
2023/10/19 00:31:27;;;;;;;21.13;15.57;;;7.70;99.90;;;;;;5096807;28;20039;-76
2023/10/19 00:33:57;;;;;;;23.40;17.70;;;7.70;99.90;;;;;;5096936;28;20054;-76
2023/10/19 00:36:25;;;;;;;24.25;16.45;;;7.70;99.90;;;;;;5097315;28;20047;-76
2023/10/19 00:41:24;;;;;;;16.70;14.02;;;7.70;99.90;;;;;;5096500;28;20130;-76
2023/10/19 00:43:57;;;;;;;22.40;17.48;;;7.70;99.90;;;;;;5097239;28;20051;-76
2023/10/19 00:46:26;;;;;;;22.08;16.83;;;7.70;99.90;;;;;;5096849;28;20040;-75
2023/10/19 00:48:54;;;;;;;22.40;15.10;;;7.70;99.90;;;;;;5114896;28;20043;-75
2023/10/19 00:54:26;;;;;;;22.73;15.45;;;7.70;99.90;;;;;;5096606;28;20108;-75
2023/10/19 00:56:55;;;;;;;21.85;16.35;;;7.70;99.90;;;;;;5079426;28;20051;-76
2023/10/19 00:59:24;;;;;;;25.60;17.27;;;7.80;99.90;;;;;;5079281;28;20112;-76
2023/10/19 01:01:55;;;;;;;22.85;16.20;;;7.70;99.90;;;;;;5114647;28;20086;-75
2023/10/19 01:04:23;;;;;;;19.63;12.77;;;7.70;99.90;;;;;;5096526;28;20051;-75
2023/10/19 01:09:34;;;;;;;24.08;18.67;;;7.70;99.90;;;;;;5096353;28;20126;-75
2023/10/19 01:12:05;;;;;;;20.50;15.52;;;7.70;99.90;;;;;;5096960;28;20130;-75
2023/10/19 01:14:32;;;;;;;23.58;17.80;;;7.70;99.90;;;;;;5114073;28;20048;-75
2023/10/19 01:16:58;;;;;;;22.02;17.50;;;7.70;99.90;;;;;;5096184;28;20039;-75
2023/10/19 01:19:27;;;;;;;26.08;20.15;;;7.70;99.90;;;;;;5114190;28;20059;-75
2023/10/19 01:21:58;;;;;;;22.55;15.52;;;7.70;99.90;;;;;;5114257;28;20059;-75
2023/10/19 01:24:42;;;;;;;23.30;15.82;;;7.70;99.90;;;;;;5096202;28;20103;-75
2023/10/19 01:27:11;;;;;;;20.80;15.85;;;7.70;99.90;;;;;;5097777;28;20077;-76
2023/10/19 01:29:39;;;;;;;23.65;15.88;;;7.80;99.90;;;;;;5113923;28;20044;-76
2023/10/19 01:32:07;;;;;;;22.15;16.15;;;7.80;99.90;;;;;;5096354;28;20131;-76
2023/10/19 01:34:36;;;;;;;29.85;18.42;;;7.80;99.90;;;;;;5095643;28;20052;-76
2023/10/19 01:37:04;;;;;;;22.45;15.85;;;7.80;99.90;;;;;;5114466;28;20044;-76
2023/10/19 01:39:38;;;;;;;18.35;14.32;;;7.80;99.90;;;;;;5095819;28;20063;-75
2023/10/19 01:42:05;;;;;;;23.42;18.13;;;7.70;99.90;;;;;;5096658;28;20393;-75
2023/10/19 01:44:31;;;;;;;24.67;19.33;;;7.80;99.90;;;;;;5113710;28;20079;-76
2023/10/19 01:46:57;;;;;;;24.85;19.05;;;7.70;99.90;;;;;;5113987;28;20108;-76
2023/10/19 01:49:29;;;;;;;21.45;16.02;;;7.70;99.90;;;;;;5095349;28;20039;-76
2023/10/19 01:51:56;;;;;;;24.67;18.42;;;7.80;99.90;;;;;;5095800;28;20050;-77
2023/10/19 01:54:25;;;;;;;24.80;18.00;;;7.80;99.90;;;;;;5113454;28;20120;-77
2023/10/19 01:56:56;;;;;;;22.77;18.23;;;7.80;99.90;;;;;;5092163;28;20174;-76
2023/10/19 01:59:27;;;;;;;23.52;17.65;;;7.80;99.90;;;;;;5092427;28;20051;-78
2023/10/19 02:01:57;;;;;;;22.15;15.15;;;7.70;99.90;;;;;;5092357;28;20152;-76
2023/10/19 02:04:24;;;;;;;24.13;19.35;;;7.70;99.90;;;;;;5075126;28;20044;-78
2023/10/19 02:06:53;;;;;;;21.13;17.38;;;7.80;99.90;;;;;;5075410;28;20048;-77
2023/10/19 02:09:23;;;;;;;21.83;16.08;;;7.70;99.90;;;;;;5092175;28;20062;-76
2023/10/19 02:11:55;;;;;;;22.52;18.27;;;7.70;99.90;;;;;;5091801;28;20077;-76
2023/10/19 02:14:23;;;;;;;24.65;19.30;;;7.70;99.90;;;;;;5092249;28;20050;-77
2023/10/19 02:16:56;;;;;;;21.13;14.55;;;7.70;99.90;;;;;;5058730;28;20055;-78
2023/10/19 02:19:24;;;;;;;22.02;15.13;;;7.70;99.90;;;;;;5059532;28;20044;-77
2023/10/19 02:22:07;;;;;;;18.33;12.73;;;7.70;99.90;;;;;;5075100;28;20105;-78
2023/10/19 02:24:33;;;;;;;17.40;11.57;;;7.70;99.90;;;;;;5091690;28;20056;-77
2023/10/19 02:27:01;;;;;;;22.63;17.27;;;7.70;99.90;;;;;;5075188;28;20105;-76
2023/10/19 02:29:26;;;;;;;22.70;16.50;;;7.70;99.90;;;;;;5075084;28;20411;-80
2023/10/19 02:31:54;;;;;;;16.90;11.73;;;7.70;99.90;;;;;;5091921;28;20047;-76
2023/10/19 02:34:20;;;;;;;16.50;14.52;;;7.70;99.90;;;;;;5075326;28;20059;-76
2023/10/19 02:36:47;;;;;;;20.98;15.63;;;7.70;99.90;;;;;;5058043;28;20367;-76
2023/10/19 02:39:14;;;;;;;20.02;16.15;;;7.70;99.90;;;;;;5074453;28;20436;-75
2023/10/19 02:41:43;;;;;;;21.17;16.92;;;7.70;99.90;;;;;;5074479;28;20066;-75
2023/10/19 02:44:22;;;;;;;19.83;15.40;;;7.70;99.90;;;;;;5091691;28;20123;-76
2023/10/19 02:46:51;;;;;;;20.67;15.60;;;7.60;99.90;;;;;;5091362;28;20499;-75
2023/10/19 02:49:20;;;;;;;20.50;14.02;;;7.70;99.90;;;;;;5091782;28;20052;-75
2023/10/19 02:51:47;;;;;;;21.00;16.50;;;7.70;99.90;;;;;;5091066;28;20138;-76
2023/10/19 02:54:22;;;;;;;18.48;15.13;;;7.60;99.90;;;;;;5091617;28;20357;-76
2023/10/19 02:56:53;;;;;;;15.95;11.80;;;7.60;99.90;;;;;;5074877;28;20109;-75
2023/10/19 02:59:23;;;;;;;18.92;14.68;;;7.70;99.90;;;;;;5074868;28;20062;-75
2023/10/19 03:01:50;;;;;;;16.58;11.65;;;7.70;99.90;;;;;;5074354;28;20080;-77
2023/10/19 03:04:17;;;;;;;19.33;14.40;;;7.70;99.90;;;;;;5074738;28;20091;-77
2023/10/19 03:06:43;;;;;;;18.55;14.48;;;7.60;99.90;;;;;;5057691;28;20040;-77
2023/10/19 03:09:22;;;;;;;22.23;14.98;;;7.60;99.90;;;;;;5074878;28;20432;-77
2023/10/19 03:11:52;;;;;;;16.25;13.35;;;7.60;99.90;;;;;;5074191;28;20039;-78
2023/10/19 03:14:18;;;;;;;15.35;11.50;;;7.60;99.90;;;;;;5074527;28;20059;-78
2023/10/19 03:16:45;;;;;;;17.48;13.52;;;7.60;99.90;;;;;;5074219;28;20048;-78
2023/10/19 03:19:12;;;;;;;14.85;10.85;;;7.70;99.90;;;;;;5074792;28;20120;-78
2023/10/19 03:21:42;;;;;;;17.75;14.32;;;7.60;99.90;;;;;;5057601;28;20090;-78
2023/10/19 03:24:42;;;;;;;16.67;14.18;;;7.70;99.90;;;;;;5074411;28;20167;-77
2023/10/19 03:27:23;;;;;;;15.55;12.43;;;7.70;99.90;;;;;;5074537;28;20502;-79
2023/10/19 03:29:55;;;;;;;16.17;11.95;;;7.60;99.90;;;;;;5073941;28;20134;-79
2023/10/19 03:32:26;;;;;;;17.10;12.15;;;7.70;99.90;;;;;;5091578;28;20045;-78
2023/10/19 03:34:55;;;;;;;17.95;15.02;;;7.70;99.90;;;;;;5091378;28;20044;-78
2023/10/19 03:37:25;;;;;;;17.20;12.02;;;7.70;99.90;;;;;;5091822;28;20346;-78
2023/10/19 03:39:51;;;;;;;18.40;13.35;;;7.70;99.90;;;;;;5075300;28;20040;-80
2023/10/19 03:42:18;;;;;;;16.05;11.45;;;7.70;99.90;;;;;;5094078;28;20048;-81
2023/10/19 03:47:12;;;;;;;16.75;13.27;;;7.70;99.90;;;;;;5077749;28;20048;-80
2023/10/19 03:49:39;;;;;;;14.48;11.60;;;7.70;99.90;;;;;;5092651;28;20047;-80
2023/10/19 03:54:40;;;;;;;12.52;9.50;;;7.70;99.90;;;;;;5095344;28;20083;-81
2023/10/19 03:57:19;;;;;;;13.50;9.80;;;7.70;99.90;;;;;;5061695;28;20056;-80
2023/10/19 03:59:46;;;;;;;13.45;10.30;;;7.70;99.90;;;;;;5094706;28;20048;-82
2023/10/19 04:02:13;;;;;;;12.40;10.40;;;7.90;99.90;;;;;;5078251;28;20040;-81
2023/10/19 04:04:48;;;;;;;13.85;10.57;;;7.70;99.90;;;;;;5077668;28;20521;-81
2023/10/19 04:07:21;;;;;;;14.15;11.55;;;7.70;99.90;;;;;;5078176;28;20501;-81
2023/10/19 04:10:29;;;;;;;11.95;9.48;;;7.70;99.90;;;;;;5095086;28;20040;-81
2023/10/19 04:12:43;;;;;;;14.80;11.10;;;7.80;99.90;;;;;;5093480;28;20529;-80
2023/10/19 04:15:12;;;;;;;16.85;12.85;;;7.80;99.90;;;;;;5095264;28;20090;-80
2023/10/19 04:17:42;;;;;;;15.02;12.30;;;7.70;99.90;;;;;;5061135;28;20563;-79
2023/10/19 04:20:28;;;;;;;16.90;12.50;;;7.80;99.90;;;;;;5061202;28;20048;-79
2023/10/19 04:22:54;;;;;;;13.80;11.27;;;7.80;99.90;;;;;;5094084;28;20048;-80
2023/10/19 04:25:20;;;;;;;13.52;9.80;;;7.80;99.90;;;;;;5077177;28;20054;-80
2023/10/19 04:27:48;;;;;;;12.00;9.98;;;7.80;99.90;;;;;;5060472;28;20048;-80
2023/10/19 04:30:15;;;;;;;15.35;11.90;;;7.80;99.90;;;;;;5060971;28;20066;-79
2023/10/19 04:32:46;;;;;;;15.65;11.68;;;7.80;99.90;;;;;;5093880;28;20128;-80
2023/10/19 04:35:24;;;;;;;14.93;10.35;;;7.80;99.90;;;;;;5093781;28;20066;-80
2023/10/19 04:37:53;;;;;;;10.93;7.63;;;7.80;99.90;;;;;;5093762;28;20044;-80
2023/10/19 04:40:23;;;;;;;12.02;8.98;;;7.80;99.90;;;;;;5077233;28;20044;-80
2023/10/19 04:42:51;;;;;;;11.60;8.55;;;7.80;99.90;;;;;;5076827;28;20040;-80
2023/10/19 04:45:17;;;;;;;12.75;9.50;;;7.80;99.90;;;;;;5077245;28;20040;-80
2023/10/19 04:47:43;;;;;;;13.15;9.45;;;7.80;99.90;;;;;;5060320;28;20375;-79
2023/10/19 04:50:12;;;;;;;12.77;9.15;;;7.80;99.90;;;;;;5093422;28;20048;-79
2023/10/19 04:52:39;;;;;;;12.05;10.05;;;7.80;99.90;;;;;;5093558;28;20075;-79
2023/10/19 04:55:05;;;;;;;12.43;9.35;;;7.80;99.90;;;;;;5079521;28;20071;-79
2023/10/19 04:57:31;;;;;;;12.20;9.30;;;7.80;99.90;;;;;;5080178;28;20539;-82
2023/10/19 04:59:57;;;;;;;13.50;11.80;;;7.80;99.90;;;;;;5063185;28;20043;-80
2023/10/19 05:02:23;;;;;;;13.00;9.77;;;7.80;99.90;;;;;;5079733;28;20055;-79
2023/10/19 05:04:49;;;;;;;12.38;9.52;;;7.90;99.90;;;;;;5097004;28;20054;-80
2023/10/19 05:07:18;;;;;;;11.98;8.50;;;7.90;99.90;;;;;;5096769;28;20089;-78
2023/10/19 05:09:45;;;;;;;12.27;9.07;;;7.90;99.90;;;;;;5097275;28;20043;-80
2023/10/19 05:12:11;;;;;;;12.32;8.45;;;7.90;99.90;;;;;;5096470;28;20035;-78
2023/10/19 05:14:39;;;;;;;11.55;8.95;;;7.90;99.90;;;;;;5080219;28;20080;-79
2023/10/19 05:17:09;;;;;;;11.88;8.77;;;7.90;99.90;;;;;;5079547;28;20083;-80
2023/10/19 05:19:39;;;;;;;11.10;8.43;;;7.90;99.90;;;;;;5080116;28;20397;-80
2023/10/19 05:22:07;;;;;;;9.70;8.07;;;7.90;99.90;;;;;;5096480;28;20054;-80
2023/10/19 05:24:33;;;;;;;11.30;8.82;;;7.90;99.90;;;;;;5079863;28;20497;-80
2023/10/19 05:26:59;;;;;;;10.95;7.45;;;7.90;99.90;;;;;;5079660;28;20055;-79
2023/10/19 05:29:25;;;;;;;9.70;7.53;;;7.90;99.90;;;;;;5097055;28;20435;-77
2023/10/19 05:31:54;;;;;;;8.20;6.20;;;7.90;99.90;;;;;;5081100;28;20100;-79
2023/10/19 05:34:21;;;;;;;9.82;7.43;;;8.20;99.90;;;;;;5099247;28;20040;-77
2023/10/19 05:36:48;;;;;;;8.73;6.53;;;7.90;99.90;;;;;;5080624;28;20078;-77
2023/10/19 05:39:15;;;;;;;9.00;7.15;;;8.00;99.90;;;;;;5081395;28;20112;-78
2023/10/19 05:41:41;;;;;;;8.70;6.63;;;8.00;99.90;;;;;;5064963;28;20078;-79
2023/10/19 05:44:07;;;;;;;8.55;6.57;;;7.90;99.90;;;;;;5098008;28;20082;-79
2023/10/19 05:46:32;;;;;;;9.02;6.63;;;8.00;99.90;;;;;;5062955;28;20464;-79
2023/10/19 05:48:58;;;;;;;7.70;6.47;;;8.00;99.90;;;;;;5064859;28;20059;-81
2023/10/19 05:51:24;;;;;;;8.48;6.60;;;8.00;99.90;;;;;;5082752;28;20050;-78
2023/10/19 05:53:50;;;;;;;7.75;5.63;;;7.90;99.90;;;;;;5067345;28;20039;-79
2023/10/19 05:56:20;;;;;;;8.77;5.75;;;8.00;99.90;;;;;;5098743;28;20305;-78
2023/10/19 05:58:50;;;;;;;7.15;4.68;;;8.00;99.90;;;;;;5099744;28;20130;-78
2023/10/19 06:01:17;;;;;;;7.00;5.55;;;8.00;99.90;;;;;;5097879;28;20147;-77
2023/10/19 06:03:43;;;;;;;7.68;5.68;;;8.00;99.90;;;;;;5080102;28;20043;-77
2023/10/19 06:06:09;;;;;;;6.70;4.93;;;8.00;99.90;;;;;;5082230;28;20073;-80
2023/10/19 06:08:35;;;;;;;7.82;5.63;;;8.00;99.90;;;;;;5083200;28;20043;-80
2023/10/19 06:11:02;;;;;;;6.40;4.82;;;8.00;99.90;;;;;;5098329;28;20047;-80
2023/10/19 06:13:29;;;;;;;8.00;5.50;;;8.00;99.90;;;;;;5079079;28;20043;-80
2023/10/19 06:15:55;;;;;;;6.50;3.95;;;8.00;99.90;;;;;;5095530;28;20048;-80
2023/10/19 06:18:21;;;;;;;7.15;5.05;;;8.00;99.90;;;;;;5078447;28;20059;-82
2023/10/19 06:20:48;;;;;;;6.22;4.88;;;8.00;99.90;;;;;;5095444;28;20057;-80
2023/10/19 06:23:13;;;;;;;7.45;4.80;;;8.00;99.90;;;;;;5078267;28;20062;-80
2023/10/19 06:25:42;;;;;;;5.90;4.85;;;8.00;99.90;;;;;;5078933;28;20446;-80
2023/10/19 06:28:08;;;;;;;5.70;3.85;;;8.00;99.90;;;;;;5095440;28;20054;-80
2023/10/19 06:30:34;;;;;;;6.72;4.72;;;8.00;99.90;;;;;;5062490;28;20047;-80
2023/10/19 06:33:01;;;;;;;7.45;5.47;;;8.00;99.90;;;;;;5078854;28;20036;-80
2023/10/19 06:35:29;;;;;;;6.82;5.25;;;8.00;99.90;;;;;;5062081;28;20048;-80
2023/10/19 06:37:55;;;;;;;6.45;5.18;;;8.00;99.90;;;;;;5062236;28;20055;-80
2023/10/19 06:40:22;;;;;;;7.85;4.70;;;8.00;99.90;;;;;;5078196;28;20043;-82
2023/10/19 06:42:49;;;;;;;6.47;4.85;;;8.00;99.90;;;;;;5095460;28;20051;-81
2023/10/19 06:45:16;;;;;;;4.97;3.97;;;8.00;99.90;;;;;;5078115;28;20450;-80
2023/10/19 06:47:44;;;;;;;6.15;4.63;;;8.00;99.90;;;;;;5078510;28;20044;-81
2023/10/19 06:50:12;;;;;;;4.97;3.60;;;8.00;99.90;;;;;;5061479;28;20108;-80
2023/10/19 06:52:39;;;;;;;7.88;4.53;;;8.00;99.90;;;;;;5078444;28;20046;-81
2023/10/19 06:55:25;;;;;;;5.93;4.72;;;8.00;99.90;;;;;;5078384;28;20165;-82
2023/10/19 06:57:58;;;;;;;6.45;4.13;;;8.00;99.90;;;;;;5078544;28;20096;-82
2023/10/19 07:00:26;;;;;;;5.28;4.13;;;8.00;99.90;;;;;;5095323;28;20051;-83
2023/10/19 07:02:55;;;;;;;4.35;3.38;;;8.10;99.90;;;;;;5062403;28;20047;-82
2023/10/19 07:05:25;;;;;;;6.28;4.22;;;8.10;99.90;;;;;;5094539;28;20055;-82
2023/10/19 07:07:54;;;;;;;4.95;3.50;;;8.10;99.90;;;;;;5095161;28;20083;-82
2023/10/19 07:10:20;;;;;;;3.72;3.00;;;8.10;99.90;;;;;;5078107;28;20101;-82
2023/10/19 07:12:48;;;;;;;4.90;3.80;;;8.00;99.90;;;;;;5078313;28;20077;-82
2023/10/19 07:15:15;;;;;;;5.20;3.85;;;8.10;99.90;;;;;;5094875;28;20059;-82
2023/10/19 07:17:41;;;;;;;6.20;4.95;;;8.00;99.90;;;;;;5077624;28;20043;-82
2023/10/19 07:20:21;;;;;;;4.97;3.78;;;8.00;99.90;;;;;;5078641;28;20051;-83
2023/10/19 07:22:47;;;;;;;5.68;4.32;;;8.10;99.90;;;;;;5095643;28;20051;-82
2023/10/19 07:25:13;;;;;;;5.55;4.07;;;8.10;99.90;;;;;;5081736;28;20052;-82
2023/10/19 07:27:42;;;;;;;5.03;3.92;;;8.00;99.90;;;;;;5049082;28;20499;-81
2023/10/19 07:30:09;;;;;;;4.72;3.70;;;8.00;99.90;;;;;;5066504;28;20217;-83
2023/10/19 07:32:35;;;;;;;4.60;3.42;;;8.10;99.90;;;;;;5048391;28;20039;-81
2023/10/19 07:35:01;;;;;;;5.43;3.92;;;8.10;99.90;;;;;;5065372;28;20071;-80
2023/10/19 07:37:28;;;;;;;6.28;4.53;;;8.10;99.90;;;;;;5081215;28;20043;-82
2023/10/19 07:39:57;;;;;;;4.05;3.45;;;8.10;99.90;;;;;;5065493;28;20055;-82
2023/10/19 07:42:23;;;;;;;3.67;2.80;;;8.10;99.90;;;;;;5081850;28;20433;-83
2023/10/19 07:44:49;;;;;;;4.18;3.17;;;8.10;99.90;;;;;;5065586;28;20052;-83
2023/10/19 07:47:15;;;;;;;3.72;2.83;;;8.10;99.90;;;;;;5065117;28;20050;-82
2023/10/19 07:49:41;;;;;;;4.32;3.50;;;8.00;99.90;;;;;;5082109;28;20042;-83
2023/10/19 07:52:08;;;;;;;5.25;3.60;;;8.10;99.90;;;;;;5082153;28;20048;-81
2023/10/19 07:54:35;;;;;;;4.18;3.00;;;8.10;99.90;;;;;;5064957;28;20051;-82
2023/10/19 07:57:08;;;;;;;4.78;2.97;;;8.10;99.90;;;;;;5061463;28;20125;-83
2023/10/19 07:59:33;;;;;;;3.97;2.72;;;8.10;99.90;;;;;;5078805;28;20478;-83
2023/10/19 08:02:04;;;;;;;5.18;3.85;;;8.10;99.90;;;;;;5061815;28;20044;-83
2023/10/19 08:04:30;;;;;;;4.80;3.10;;;8.10;99.90;;;;;;5078362;28;20044;-83
2023/10/19 08:06:59;;;;;;;4.70;3.60;;;8.10;99.90;;;;;;5095147;28;20052;-83
2023/10/19 08:09:31;;;;;;;3.50;2.55;;;8.10;99.90;;;;;;5077575;28;20052;-82
2023/10/19 08:11:59;;;;;;;4.47;3.33;;;8.10;99.90;;;;;;5078215;28;20104;-82
2023/10/19 08:14:28;;;;;;;5.05;3.70;;;8.10;99.90;;;;;;5077636;28;20104;-83
2023/10/19 08:16:54;;;;;;;4.75;3.55;;;8.10;99.90;;;;;;5095374;28;20116;-85
2023/10/19 08:19:20;;;;;;;5.45;3.22;;;8.10;99.90;;;;;;5094633;28;20052;-82
2023/10/19 08:21:46;;;;;;;4.28;3.05;;;8.10;99.90;;;;;;5095093;28;20458;-83
2023/10/19 08:24:17;;;;;;;4.82;3.53;;;8.10;99.90;;;;;;5061230;28;20044;-83
2023/10/19 08:26:46;;;;;;;6.18;4.72;;;8.10;99.90;;;;;;5078716;28;20044;-84
2023/10/19 08:29:12;;;;;;;5.30;4.13;;;8.10;99.90;;;;;;5077539;28;20640;-81
2023/10/19 08:31:42;;;;;;;5.05;4.18;;;8.10;99.90;;;;;;5077125;28;20124;-85
2023/10/19 08:34:11;;;;;;;5.38;3.80;;;8.10;99.90;;;;;;5094076;28;20087;-81
2023/10/19 08:36:40;;;;;;;5.32;4.22;;;8.10;99.90;;;;;;5076372;28;20043;-83
2023/10/19 08:39:07;;;;;;;5.88;4.72;;;8.20;99.90;;;;;;5077420;28;20423;-85
2023/10/19 08:41:37;;;;;;;6.97;3.92;;;8.10;99.90;;;;;;5060194;28;20052;-85
2023/10/19 08:44:15;;;;;;;4.90;3.88;;;8.20;99.90;;;;;;5077378;28;20048;-83
2023/10/19 08:46:48;;;;;;;4.68;3.83;;;8.20;99.90;;;;;;5076929;28;20135;-84
2023/10/19 08:49:15;;;;;;;3.92;2.72;;;8.20;99.90;;;;;;5077314;28;20083;-83
2023/10/19 08:51:45;;;;;;;4.38;3.47;;;8.20;99.90;;;;;;5077001;28;20117;-84
2023/10/19 08:54:12;;;;;;;6.38;3.97;;;8.20;99.90;;;;;;5077147;28;20044;-85
2023/10/19 08:56:41;;;;;;;5.38;4.22;;;8.20;99.90;;;;;;5077750;28;20083;-74
2023/10/19 08:59:15;;;;;;;5.13;3.70;;;8.20;99.90;;;;;;5094583;28;20369;-76
2023/10/19 09:01:43;;;;;;;5.28;4.43;;;8.20;99.90;;;;;;5077742;28;20101;-75
2023/10/19 09:04:10;;;;;;;6.28;4.03;;;8.20;99.90;;;;;;5077263;28;20505;-76
2023/10/19 09:06:43;;;;;;;4.78;3.55;;;8.30;99.90;;;;;;5094381;28;20052;-78
2023/10/19 09:09:13;;;;;;;7.32;5.10;;;8.30;99.90;;;;;;5094414;28;20082;-73
2023/10/19 09:11:40;;;;;;;5.35;3.95;;;8.30;99.90;;;;;;5093735;28;20083;-74
2023/10/19 09:14:06;;;;;;;4.95;3.78;;;8.30;99.90;;;;;;5093812;28;20123;-74
2023/10/19 09:16:32;;;;;;;5.00;3.90;;;8.30;99.90;;;;;;5077334;28;20366;-74
2023/10/19 09:18:58;;;;;;;6.18;4.03;;;8.30;99.90;;;;;;5077530;28;20047;-74
2023/10/19 09:21:24;;;;;;;5.10;4.15;;;8.30;99.90;;;;;;5077676;28;20052;-75
2023/10/19 09:23:51;;;;;;;5.15;4.20;;;8.30;99.90;;;;;;5093546;28;20166;-75
2023/10/19 09:26:18;;;;;;;5.25;4.47;;;8.40;99.90;;;;;;5059820;28;20048;-74
2023/10/19 09:28:47;;;;;;;5.13;3.97;;;8.40;99.90;;;;;;5076250;28;20044;-75
2023/10/19 09:31:13;;;;;;;4.72;3.60;;;8.40;99.90;;;;;;5076471;28;20060;-73
2023/10/19 09:33:47;;;;;;;9.55;5.88;;;8.40;99.90;;;;;;5092686;28;20048;-73
2023/10/19 09:36:14;;;;;;;7.88;5.50;;;8.40;99.90;;;;;;5076390;28;20044;-74
2023/10/19 09:38:43;;;;;;;5.78;4.80;;;8.40;99.90;;;;;;5093766;28;20135;-73
2023/10/19 09:41:12;;;;;;;6.30;4.38;;;8.40;99.90;;;;;;5076089;28;20048;-78
2023/10/19 09:43:42;;;;;;;5.60;3.80;;;8.40;99.90;;;;;;5075837;28;20127;-78
2023/10/19 09:46:09;;;;;;;7.47;3.17;;;8.40;99.90;;;;;;5059412;28;20052;-78
2023/10/19 09:48:42;;;;;;;5.18;4.15;;;8.50;99.90;;;;;;5091426;28;20055;-78
2023/10/19 09:51:09;;;;;;;7.38;4.47;;;8.50;99.90;;;;;;5092668;28;20036;-77
2023/10/19 09:53:37;;;;;;;6.28;4.68;;;8.50;99.90;;;;;;5093398;28;20040;-78
2023/10/19 09:56:06;;;;;;;6.47;4.60;;;8.50;99.90;;;;;;5092384;28;20060;-77
2023/10/19 09:58:48;;;;;;;5.82;4.50;;;8.50;99.90;;;;;;5092303;28;20508;-79
2023/10/19 10:01:15;;;;;;;7.53;4.60;;;8.50;99.90;;;;;;5075772;28;20113;-77
2023/10/19 10:03:51;;;;;;;5.65;4.07;;;8.50;99.90;;;;;;5092215;28;20383;-75
2023/10/19 10:06:55;;;;;;;5.95;4.40;;;8.60;99.90;;;;;;5075452;28;20454;-75
2023/10/19 10:09:29;;;;;;;6.07;4.32;;;8.60;99.90;;;;;;5149175;27;20397;-75
2023/10/19 10:11:56;;;;;;;6.85;5.20;;;8.60;99.90;;;;;;5145524;27;20048;-75
2023/10/19 10:14:28;;;;;;;6.28;4.22;;;8.50;99.90;;;;;;5133076;27;20047;-74
2023/10/19 10:17:01;;;;;;;8.13;5.20;;;8.60;99.90;;;;;;5126380;28;20126;-74
2023/10/19 10:19:27;;;;;;;6.32;5.03;;;8.60;99.90;;;;;;5129463;27;20051;-75
2023/10/19 10:22:14;;;;;;;7.47;4.82;;;8.60;99.90;;;;;;5120484;27;20035;-75
2023/10/19 10:24:44;;;;;;;7.80;5.07;;;8.60;99.90;;;;;;5140653;27;20070;-75
2023/10/19 10:27:13;;;;;;;6.30;5.00;;;8.60;99.90;;;;;;5136411;27;20085;-74
2023/10/19 10:30:06;;;;;;;6.75;5.05;;;8.70;99.90;;;;;;5114388;28;20378;-75
2023/10/19 10:32:45;;;;;;;7.18;4.78;;;8.70;99.90;;;;;;5117749;27;20039;-76
2023/10/19 10:35:37;;;;;;;7.13;5.78;;;8.70;99.90;;;;;;5143773;27;20069;-76
2023/10/19 10:38:11;;;;;;;7.28;4.18;;;8.70;99.90;;;;;;5128925;27;20035;-76
2023/10/19 10:40:44;;;;;;;7.82;3.95;;;8.70;99.90;;;;;;5128563;27;20128;-78
2023/10/19 10:43:10;;;;;;;7.45;6.53;;;8.80;99.90;;;;;;5122474;27;20408;-75
2023/10/19 10:45:36;;;;;;;8.93;6.15;;;8.80;99.90;;;;;;5130234;27;20043;-77
2023/10/19 10:48:03;;;;;;;8.02;6.15;;;8.80;99.90;;;;;;5144846;27;20043;-76
2023/10/19 10:50:29;;;;;;;7.10;5.07;;;8.80;99.90;;;;;;5149550;27;20074;-75
2023/10/19 10:52:57;;;;;;;11.68;6.70;;;8.90;99.90;;;;;;5148325;27;20085;-75
2023/10/19 10:55:26;;;;;;;7.60;6.40;;;8.80;99.90;;;;;;5148775;27;20047;-74
2023/10/19 10:57:54;;;;;;;7.43;6.63;;;8.90;99.90;;;;;;5147642;27;20057;-74
2023/10/19 11:00:22;;;;;;;8.70;6.32;;;8.80;99.90;;;;;;5149705;27;20043;-74
2023/10/19 11:03:00;;;;;;;8.35;5.43;;;8.90;99.90;;;;;;5148832;27;20118;-74
2023/10/19 11:05:26;;;;;;;7.63;6.10;;;8.90;99.90;;;;;;5150091;27;20448;-74
2023/10/19 11:08:14;;;;;;;8.07;6.45;;;8.80;99.90;;;;;;5147949;27;20138;-74
2023/10/19 11:10:46;;;;;;;11.57;6.78;;;8.80;99.90;;;;;;5129636;27;20047;-73
2023/10/19 11:13:13;;;;;;;10.70;6.00;;;8.80;99.90;;;;;;5150179;27;20050;-73
2023/10/19 11:15:47;;;;;;;7.95;6.57;;;8.80;99.90;;;;;;5148250;27;20047;-72
2023/10/19 11:18:35;;;;;;;9.93;6.00;;;8.80;99.90;;;;;;5130851;27;20031;-73
2023/10/19 11:21:05;;;;;;;9.95;6.20;;;8.80;99.90;;;;;;5122772;27;20085;-70
2023/10/19 11:23:48;;;;;;;11.18;5.57;;;8.90;99.90;;;;;;5122431;27;20046;-72
2023/10/19 11:26:20;;;;;;;6.53;5.78;;;8.90;99.90;;;;;;5129074;27;20100;-71
2023/10/19 11:28:53;;;;;;;6.97;5.72;;;8.90;99.90;;;;;;5128640;27;20043;-73
2023/10/19 11:31:21;;;;;;;7.90;5.95;;;8.90;99.90;;;;;;5126178;27;20052;-71
2023/10/19 11:33:48;;;;;;;6.85;5.60;;;8.90;99.90;;;;;;5119129;27;20110;-72
2023/10/19 11:36:15;;;;;;;7.75;6.43;;;8.90;99.90;;;;;;5133717;27;20043;-71
2023/10/19 11:38:43;;;;;;;7.65;5.53;;;8.90;99.90;;;;;;5121664;27;20127;-71
2023/10/19 11:41:09;;;;;;;9.18;5.93;;;8.90;99.90;;;;;;5113522;28;20072;-71
2023/10/19 11:43:36;;;;;;;6.45;5.40;;;8.90;99.90;;;;;;5098298;27;20104;-70
2023/10/19 11:46:05;;;;;;;9.02;6.88;;;8.90;99.90;;;;;;5113988;28;20081;-71
2023/10/19 11:48:36;;;;;;;9.15;7.47;;;8.90;99.90;;;;;;5126079;27;20121;-71
2023/10/19 11:51:06;;;;;;;9.38;8.45;;;8.90;99.90;;;;;;5134267;27;20062;-72
2023/10/19 11:53:36;;;;;;;13.38;9.98;;;8.90;99.90;;;;;;5122104;27;20047;-70
2023/10/19 11:56:07;;;;;;;13.30;10.18;;;8.90;99.90;;;;;;5133829;27;20050;-71
2023/10/19 11:58:37;;;;;;;14.75;11.95;;;8.90;99.90;;;;;;5134334;27;20045;-71
2023/10/19 12:01:12;;;;;;;14.43;12.68;;;8.80;99.90;;;;;;5133743;27;20044;-71
2023/10/19 12:03:41;;;;;;;13.30;11.98;;;8.80;99.90;;;;;;5135147;27;20039;-71
2023/10/19 12:06:07;;;;;;;18.52;13.98;;;8.90;99.90;;;;;;5130356;27;20050;-71
2023/10/19 12:08:37;;;;;;;17.38;11.00;;;8.80;99.90;;;;;;5134734;27;20047;-71
2023/10/19 12:11:04;;;;;;;10.40;9.13;;;8.90;99.90;;;;;;5135021;27;20047;-71
2023/10/19 12:13:33;;;;;;;15.73;12.45;;;8.80;99.90;;;;;;5126842;27;20051;-71
2023/10/19 12:15:59;;;;;;;13.13;11.68;;;8.80;99.90;;;;;;5121838;27;20035;-71
2023/10/19 12:18:28;;;;;;;15.52;12.90;;;8.80;99.90;;;;;;5134047;27;20039;-70
2023/10/19 12:20:59;;;;;;;19.25;13.32;;;8.80;99.90;;;;;;5116821;27;20051;-71
2023/10/19 12:23:25;;;;;;;13.98;10.90;;;8.80;99.90;;;;;;5135309;27;20051;-72
2023/10/19 12:25:51;;;;;;;15.98;10.15;;;8.80;99.90;;;;;;5132937;27;20051;-73
2023/10/19 12:28:18;;;;;;;15.48;12.35;;;8.80;99.90;;;;;;5133653;27;20035;-71
2023/10/19 12:30:44;;;;;;;12.20;9.25;;;8.80;99.90;;;;;;5134595;27;20128;-71
2023/10/19 12:33:13;;;;;;;13.55;11.75;;;8.80;99.90;;;;;;5116918;27;20051;-72
2023/10/19 12:35:53;;;;;;;13.77;9.95;;;8.80;99.90;;;;;;5117747;27;20045;-72
2023/10/19 12:38:22;;;;;;;11.70;9.32;;;8.80;99.90;;;;;;5121489;27;20047;-72
2023/10/19 12:40:50;;;;;;;11.43;9.13;;;8.80;99.90;;;;;;5129564;27;20040;-73
2023/10/19 12:43:25;;;;;;;13.45;8.38;;;8.80;99.90;;;;;;5132904;27;20043;-72
2023/10/19 12:45:53;;;;;;;9.85;6.40;;;8.80;99.90;;;;;;5133218;27;20035;-72
2023/10/19 12:48:25;;;;;;;10.05;8.38;;;8.80;99.90;;;;;;5130353;27;20035;-72
2023/10/19 12:50:51;;;;;;;12.35;8.77;;;8.70;99.90;;;;;;5126049;27;20438;-72
2023/10/19 12:53:16;;;;;;;11.57;8.73;;;8.70;99.90;;;;;;5129976;27;20051;-72
2023/10/19 12:55:44;;;;;;;12.05;7.82;;;8.70;99.90;;;;;;5132776;27;20046;-72
2023/10/19 12:58:11;;;;;;;9.13;7.43;;;8.60;99.90;;;;;;5132232;27;20493;-72
2023/10/19 13:00:40;;;;;;;11.32;8.45;;;8.70;99.90;;;;;;5129690;27;20146;-71
2023/10/19 13:03:08;;;;;;;12.82;8.75;;;8.70;99.90;;;;;;5125061;27;20046;-72
2023/10/19 13:05:35;;;;;;;10.73;7.78;;;8.70;99.90;;;;;;5132709;27;20076;-72
2023/10/19 13:08:01;;;;;;;10.30;7.90;;;8.70;99.90;;;;;;5131707;27;20112;-72
2023/10/19 13:10:34;;;;;;;7.97;6.95;;;8.70;99.90;;;;;;5131556;27;20118;-72
2023/10/19 13:13:11;;;;;;;10.57;7.40;;;8.70;99.90;;;;;;5114565;27;20047;-72